Time;durP1;ratioP1;P1;durP2;ratioP2;P2;SDS_P1;SDS_P2;PMS_P1;PMS_P2;Temp;Humidity;BMP_temperature;BMP_pressure;BME280_temperature;BME280_humidity;BME280_pressure;Samples;Min_cycle;Max_cycle;Signal;HPM_P1;HPM_P2
2022/06/17 00:01:21;;;;;;;7.70;7.05;;;13.80;99.90;;;;;;5036037;28;20104;-73
2022/06/17 00:03:48;;;;;;;7.78;7.07;;;13.80;99.90;;;;;;5052608;28;20068;-74
2022/06/17 00:06:15;;;;;;;7.40;6.80;;;13.70;99.90;;;;;;5052482;28;20044;-73
2022/06/17 00:08:44;;;;;;;7.20;6.32;;;13.70;99.90;;;;;;5052483;28;20048;-73
2022/06/17 00:11:14;;;;;;;6.25;5.75;;;13.70;99.90;;;;;;5052652;28;20559;-73
2022/06/17 00:13:40;;;;;;;6.85;6.15;;;13.50;99.90;;;;;;5052742;28;20443;-73
2022/06/17 00:16:13;;;;;;;5.03;4.53;;;13.50;99.90;;;;;;5052237;28;20075;-73
2022/06/17 00:18:40;;;;;;;5.57;4.85;;;13.50;99.90;;;;;;5070884;28;20048;-74
2022/06/17 00:21:05;;;;;;;5.47;5.05;;;13.40;99.90;;;;;;5052505;28;20048;-74
2022/06/17 00:23:31;;;;;;;5.47;4.30;;;13.20;99.90;;;;;;5060468;22;20044;-75
2022/06/17 00:25:57;;;;;;;5.03;4.63;;;13.10;99.90;;;;;;5052594;28;20052;-75
2022/06/17 00:28:24;;;;;;;5.07;4.68;;;13.20;99.90;;;;;;5052323;28;20128;-75
2022/06/17 00:30:50;;;;;;;6.00;5.40;;;13.20;99.90;;;;;;5052754;28;20036;-75
2022/06/17 00:33:18;;;;;;;5.47;5.03;;;13.20;99.90;;;;;;5052279;28;20036;-75
2022/06/17 00:35:55;;;;;;;6.05;5.55;;;13.20;99.90;;;;;;5052422;28;20044;-75
2022/06/17 00:38:23;;;;;;;5.88;5.38;;;13.20;99.90;;;;;;5035658;28;20566;-75
2022/06/17 00:40:50;;;;;;;6.05;5.43;;;13.20;99.90;;;;;;5052229;28;20049;-75
2022/06/17 00:43:30;;;;;;;5.93;5.43;;;13.20;99.90;;;;;;5051935;28;20079;-75
2022/06/17 00:46:10;;;;;;;6.78;6.20;;;13.20;99.90;;;;;;5035556;28;20044;-75
2022/06/17 00:48:52;;;;;;;8.13;6.60;;;13.20;99.90;;;;;;5035218;28;20041;-75
2022/06/17 00:51:27;;;;;;;8.32;6.63;;;13.20;99.90;;;;;;5052178;28;20048;-75
2022/06/17 00:53:58;;;;;;;7.47;6.63;;;13.30;99.90;;;;;;5052062;28;20520;-75
2022/06/17 00:56:31;;;;;;;7.63;6.85;;;13.30;99.90;;;;;;5052226;28;20042;-76
2022/06/17 00:59:07;;;;;;;7.95;7.22;;;13.20;99.90;;;;;;5052241;28;20359;-75
2022/06/17 01:02:01;;;;;;;8.73;7.20;;;13.20;99.90;;;;;;5052265;28;20041;-75
2022/06/17 01:04:42;;;;;;;7.03;6.28;;;13.20;99.90;;;;;;5052229;28;20107;-75
2022/06/17 01:07:15;;;;;;;7.30;6.47;;;13.10;99.90;;;;;;5051773;28;20052;-75
2022/06/17 01:09:57;;;;;;;7.50;6.78;;;13.10;99.90;;;;;;5052239;28;20441;-75
2022/06/17 01:12:31;;;;;;;8.02;6.85;;;13.10;99.90;;;;;;5035294;28;20051;-75
2022/06/17 01:14:57;;;;;;;7.45;6.75;;;13.10;99.90;;;;;;5052208;28;20468;-75
2022/06/17 01:17:23;;;;;;;7.13;6.03;;;13.00;99.90;;;;;;5051913;28;20525;-74
2022/06/17 01:19:51;;;;;;;6.70;6.00;;;13.10;99.90;;;;;;5035293;28;20040;-75
2022/06/17 01:22:26;;;;;;;6.53;5.90;;;13.10;99.90;;;;;;5051839;28;20036;-74
2022/06/17 01:25:17;;;;;;;6.78;6.28;;;13.00;99.90;;;;;;5051752;28;20060;-75
2022/06/17 01:27:54;;;;;;;8.55;6.93;;;13.00;99.90;;;;;;5051916;28;20110;-76
2022/06/17 01:30:31;;;;;;;7.10;6.30;;;13.00;99.90;;;;;;5055175;28;20044;-76
2022/06/17 01:33:25;;;;;;;7.32;6.60;;;13.00;99.90;;;;;;5055377;28;20085;-75
2022/06/17 01:35:59;;;;;;;8.50;7.50;;;13.00;99.90;;;;;;5052508;28;20056;-75
2022/06/17 01:38:26;;;;;;;7.97;7.30;;;13.00;99.90;;;;;;5055517;28;20105;-75
2022/06/17 01:40:53;;;;;;;8.55;7.50;;;13.00;99.90;;;;;;5055636;28;20074;-76
2022/06/17 01:43:21;;;;;;;8.95;8.15;;;13.00;99.90;;;;;;5055126;28;20048;-75
2022/06/17 01:45:54;;;;;;;9.07;7.95;;;13.00;99.90;;;;;;5038819;28;20040;-75
2022/06/17 01:48:23;;;;;;;8.55;7.75;;;13.00;99.90;;;;;;5055173;28;20500;-75
2022/06/17 01:50:52;;;;;;;8.90;8.02;;;13.00;99.90;;;;;;5055111;28;20045;-75
2022/06/17 01:53:23;;;;;;;8.63;7.82;;;13.00;99.90;;;;;;5072981;28;20048;-75
2022/06/17 01:55:57;;;;;;;9.23;8.23;;;12.90;99.90;;;;;;5038988;28;20386;-76
2022/06/17 01:58:37;;;;;;;8.88;7.95;;;13.00;99.90;;;;;;5055280;28;20052;-76
2022/06/17 02:01:06;;;;;;;8.13;7.43;;;12.90;99.90;;;;;;5055046;28;20109;-77
2022/06/17 02:03:58;;;;;;;8.75;7.97;;;13.00;99.90;;;;;;5055055;28;20462;-75
2022/06/17 02:06:31;;;;;;;9.23;8.33;;;12.90;99.90;;;;;;5054946;28;20053;-76
2022/06/17 02:08:57;;;;;;;9.80;8.80;;;12.90;99.90;;;;;;5054640;28;20106;-75
2022/06/17 02:11:25;;;;;;;11.15;8.10;;;13.00;99.90;;;;;;5038307;28;20051;-76
2022/06/17 02:13:52;;;;;;;10.43;8.40;;;12.90;99.90;;;;;;5054884;28;20048;-76
2022/06/17 02:16:18;;;;;;;9.35;8.55;;;12.90;99.90;;;;;;5054976;28;20500;-76
2022/06/17 02:18:45;;;;;;;11.90;8.35;;;12.90;99.90;;;;;;5054793;28;20052;-76
2022/06/17 02:21:22;;;;;;;8.95;8.13;;;12.90;99.90;;;;;;5054525;28;20481;-76
2022/06/17 02:23:48;;;;;;;9.43;8.23;;;12.90;99.90;;;;;;5054381;28;20438;-76
2022/06/17 02:26:15;;;;;;;9.57;8.57;;;12.80;99.90;;;;;;5054549;28;20056;-76
2022/06/17 02:28:42;;;;;;;10.23;9.10;;;12.80;99.90;;;;;;5038037;28;20068;-75
2022/06/17 02:31:08;;;;;;;8.93;8.13;;;12.80;99.90;;;;;;5054501;28;20088;-76
2022/06/17 02:33:36;;;;;;;9.20;8.30;;;12.90;99.90;;;;;;5054233;28;20060;-76
2022/06/17 02:36:10;;;;;;;10.10;8.95;;;12.90;99.90;;;;;;5037818;28;20086;-76
2022/06/17 02:38:37;;;;;;;8.88;8.07;;;12.90;99.90;;;;;;5054247;28;20045;-76
2022/06/17 02:41:06;;;;;;;8.75;7.70;;;12.80;99.90;;;;;;5054333;28;20096;-75
2022/06/17 02:43:44;;;;;;;10.10;8.30;;;12.80;99.90;;;;;;5054247;28;20144;-76
2022/06/17 02:46:25;;;;;;;10.70;8.48;;;12.80;99.90;;;;;;5037685;28;20040;-75
2022/06/17 02:49:16;;;;;;;8.55;7.80;;;12.80;99.90;;;;;;5037475;28;20094;-76
2022/06/17 02:51:43;;;;;;;8.68;7.97;;;12.80;99.90;;;;;;5071228;28;20155;-76
2022/06/17 02:54:21;;;;;;;9.90;8.05;;;12.80;99.90;;;;;;5053935;28;20036;-76
2022/06/17 02:56:51;;;;;;;8.32;7.53;;;12.70;99.90;;;;;;5053919;28;20111;-75
2022/06/17 02:59:23;;;;;;;8.55;7.60;;;12.70;99.90;;;;;;5054074;28;20397;-76
2022/06/17 03:01:50;;;;;;;;;;;12.70;99.90;;;;;;5054632;28;20460;-75
2022/06/17 03:04:20;;;;;;;7.68;6.97;;;12.70;99.90;;;;;;5053969;28;20265;-76
2022/06/17 03:06:49;;;;;;;7.60;6.95;;;12.70;99.90;;;;;;5053994;28;20059;-76
2022/06/17 03:09:20;;;;;;;7.40;6.63;;;12.70;99.90;;;;;;5037038;28;20040;-77
2022/06/17 03:11:56;;;;;;;10.02;7.25;;;12.60;99.90;;;;;;5053831;28;20040;-76
2022/06/17 03:14:25;;;;;;;11.48;7.68;;;12.60;99.90;;;;;;5053395;28;20389;-74
2022/06/17 03:16:53;;;;;;;7.25;6.60;;;12.50;99.90;;;;;;5053467;28;20076;-74
2022/06/17 03:19:21;;;;;;;7.40;6.70;;;12.50;99.90;;;;;;5053491;28;20528;-74
2022/06/17 03:21:47;;;;;;;7.35;6.65;;;12.50;99.90;;;;;;5053328;28;20082;-74
2022/06/17 03:24:21;;;;;;;10.23;7.20;;;12.60;99.90;;;;;;5053089;28;20387;-75
2022/06/17 03:26:57;;;;;;;7.90;7.18;;;12.60;99.90;;;;;;5036890;28;20059;-75
2022/06/17 03:29:26;;;;;;;9.50;6.88;;;12.70;99.90;;;;;;5053259;28;20273;-75
2022/06/17 03:31:59;;;;;;;10.27;7.40;;;12.70;99.90;;;;;;5053092;28;20033;-75
2022/06/17 03:34:36;;;;;;;7.85;7.07;;;12.70;99.90;;;;;;5053406;28;20100;-75
2022/06/17 03:37:34;;;;;;;7.13;6.53;;;12.80;99.90;;;;;;5053136;28;20047;-75
2022/06/17 03:40:13;;;;;;;7.30;6.60;;;12.90;99.90;;;;;;5053216;28;20040;-75
2022/06/17 03:42:52;;;;;;;9.35;7.13;;;13.00;99.90;;;;;;5053009;28;20036;-74
2022/06/17 03:45:23;;;;;;;7.20;6.60;;;13.10;99.90;;;;;;5053152;28;20043;-75
2022/06/17 03:47:57;;;;;;;7.07;6.38;;;13.10;99.90;;;;;;5036094;28;20040;-75
2022/06/17 03:50:47;;;;;;;7.32;6.72;;;13.30;99.90;;;;;;5052829;28;20068;-75
2022/06/17 03:53:27;;;;;;;6.97;6.35;;;13.40;99.90;;;;;;5052819;28;20042;-75
2022/06/17 03:55:57;;;;;;;7.85;6.38;;;13.40;99.90;;;;;;5052745;28;20032;-76
2022/06/17 03:58:23;;;;;;;8.38;6.45;;;13.50;99.90;;;;;;5053019;28;20044;-76
2022/06/17 04:01:01;;;;;;;7.55;5.57;;;13.50;99.90;;;;;;5052594;28;20055;-75
2022/06/17 04:03:32;;;;;;;7.63;6.25;;;13.50;99.90;;;;;;5052782;28;20051;-75
2022/06/17 04:06:20;;;;;;;8.93;5.70;;;13.60;99.90;;;;;;5052485;28;20070;-76
2022/06/17 04:09:01;;;;;;;7.18;6.57;;;13.60;99.90;;;;;;5036103;28;20048;-76
2022/06/17 04:11:32;;;;;;;6.67;6.07;;;13.70;99.90;;;;;;5052547;28;20089;-75
2022/06/17 04:14:00;;;;;;;7.10;5.75;;;13.70;99.90;;;;;;5052546;28;20291;-74
2022/06/17 04:16:53;;;;;;;8.98;6.32;;;13.80;99.90;;;;;;5052286;28;20097;-75
2022/06/17 04:19:26;;;;;;;7.03;5.90;;;13.90;99.90;;;;;;5044905;28;20501;-75
2022/06/17 04:21:57;;;;;;;6.90;6.20;;;14.00;99.90;;;;;;5052254;28;20072;-75
2022/06/17 04:24:25;;;;;;;6.90;5.97;;;14.20;99.90;;;;;;5052524;28;20055;-76
2022/06/17 04:26:56;;;;;;;14.98;6.97;;;14.30;99.90;;;;;;5052054;28;20501;-76
2022/06/17 04:29:35;;;;;;;7.57;6.82;;;14.50;99.90;;;;;;5036016;28;20483;-75
2022/06/17 04:32:31;;;;;;;8.70;6.88;;;14.50;99.90;;;;;;5052284;28;20040;-75
2022/06/17 04:34:56;;;;;;;6.90;6.28;;;14.60;99.90;;;;;;5052275;28;20033;-76
2022/06/17 04:37:23;;;;;;;7.78;7.07;;;14.80;99.90;;;;;;5052223;28;20043;-76
2022/06/17 04:39:54;;;;;;;18.38;7.03;;;14.90;99.90;;;;;;5035782;28;20094;-75
2022/06/17 04:42:30;;;;;;;8.02;7.15;;;15.00;99.90;;;;;;5052082;28;20540;-76
2022/06/17 04:44:55;;;;;;;6.32;5.72;;;15.10;99.90;;;;;;5052428;28;20128;-76
2022/06/17 04:47:22;;;;;;;6.82;6.13;;;15.20;99.90;;;;;;5035548;28;20545;-75
2022/06/17 04:50:04;;;;;;;7.43;6.65;;;15.30;99.90;;;;;;5052162;28;20032;-76
2022/06/17 04:52:36;;;;;;;6.95;5.63;;;15.40;99.90;;;;;;5035531;28;20071;-75
2022/06/17 04:55:06;;;;;;;6.20;5.70;;;15.50;99.90;;;;;;5052551;28;20227;-75
2022/06/17 04:57:32;;;;;;;6.97;6.28;;;15.50;99.90;;;;;;5051803;28;20052;-75
2022/06/17 05:00:01;;;;;;;7.78;6.78;;;15.50;99.90;;;;;;5035611;28;20070;-75
2022/06/17 05:02:33;;;;;;;8.32;7.18;;;15.50;99.90;;;;;;5051908;28;20547;-74
2022/06/17 05:05:02;;;;;;;9.00;7.47;;;15.50;99.90;;;;;;5054930;28;20047;-75
2022/06/17 05:07:38;;;;;;;11.18;7.88;;;15.60;99.90;;;;;;5056050;28;20036;-75
2022/06/17 05:10:10;;;;;;;8.68;7.25;;;15.60;99.90;;;;;;5055967;28;20045;-75
2022/06/17 05:12:44;;;;;;;12.10;8.18;;;15.60;99.90;;;;;;5039115;28;20482;-76
2022/06/17 05:15:17;;;;;;;9.43;7.82;;;15.60;99.90;;;;;;5072728;28;20036;-75
2022/06/17 05:17:43;;;;;;;9.43;8.13;;;15.70;99.90;;;;;;5055740;28;20571;-75
2022/06/17 05:20:20;;;;;;;8.73;7.80;;;15.80;99.90;;;;;;5056003;28;20390;-75
2022/06/17 05:22:59;;;;;;;9.23;8.32;;;15.90;99.90;;;;;;5055633;28;20032;-75
2022/06/17 05:25:28;;;;;;;9.10;8.10;;;16.00;99.90;;;;;;5055745;28;20264;-75
2022/06/17 05:27:53;;;;;;;10.25;8.05;;;16.00;99.90;;;;;;5055443;28;20150;-75
2022/06/17 05:30:20;;;;;;;10.52;8.50;;;16.10;99.90;;;;;;5055497;28;20343;-75
2022/06/17 05:32:52;;;;;;;9.93;7.93;;;16.10;99.90;;;;;;5055440;28;20032;-75
2022/06/17 05:35:18;;;;;;;8.57;7.68;;;16.20;99.90;;;;;;5038810;28;20120;-75
2022/06/17 05:37:44;;;;;;;8.40;7.63;;;16.20;99.90;;;;;;5038657;28;20052;-75
2022/06/17 05:40:10;;;;;;;7.95;7.03;;;16.30;99.90;;;;;;5055413;28;20032;-75
2022/06/17 05:42:36;;;;;;;8.93;7.55;;;16.30;99.90;;;;;;5055246;28;20041;-75
2022/06/17 05:45:03;;;;;;;8.27;7.18;;;16.30;99.90;;;;;;5055602;28;20044;-75
2022/06/17 05:47:28;;;;;;;9.38;7.18;;;16.40;99.90;;;;;;5055276;28;20497;-76
2022/06/17 05:49:54;;;;;;;7.57;6.88;;;16.40;99.90;;;;;;5055187;28;20037;-76
2022/06/17 05:52:19;;;;;;;7.93;6.88;;;16.50;99.90;;;;;;5055126;28;20041;-75
2022/06/17 05:54:46;;;;;;;8.55;7.15;;;16.50;99.90;;;;;;5055013;28;20048;-75
2022/06/17 05:57:12;;;;;;;10.40;7.38;;;16.60;99.90;;;;;;5054936;28;20038;-75
2022/06/17 05:59:37;;;;;;;7.85;6.80;;;16.60;99.90;;;;;;5054839;28;20032;-76
2022/06/17 06:02:04;;;;;;;12.30;7.47;;;16.70;99.90;;;;;;5055146;28;20045;-76
2022/06/17 06:04:31;;;;;;;9.60;7.00;;;16.70;99.90;;;;;;5055148;28;20482;-76
2022/06/17 06:06:57;;;;;;;8.75;7.18;;;16.80;99.90;;;;;;5055283;28;20082;-77
2022/06/17 06:09:22;;;;;;;8.52;7.63;;;16.80;99.90;;;;;;5055113;28;20089;-76
2022/06/17 06:11:48;;;;;;;11.52;7.57;;;16.90;99.90;;;;;;5055613;28;20525;-76
2022/06/17 06:14:14;;;;;;;8.68;7.88;;;17.00;99.90;;;;;;5054402;28;20398;-76
2022/06/17 06:16:39;;;;;;;10.82;8.57;;;17.10;99.90;;;;;;5054909;28;20383;-76
2022/06/17 06:19:05;;;;;;;9.00;7.82;;;17.10;99.90;;;;;;5055081;28;20398;-76
2022/06/17 06:21:31;;;;;;;8.45;7.72;;;17.20;99.90;;;;;;5055035;28;20047;-76
2022/06/17 06:23:56;;;;;;;9.48;8.40;;;17.30;99.90;;;;;;5051101;28;20057;-74
2022/06/17 06:26:23;;;;;;;9.02;8.05;;;17.30;99.90;;;;;;5034663;28;20041;-74
2022/06/17 06:28:48;;;;;;;9.02;8.13;;;17.30;99.90;;;;;;5051119;28;20033;-75
2022/06/17 06:31:25;;;;;;;7.85;7.07;;;17.40;99.90;;;;;;5051323;28;20467;-75
2022/06/17 06:33:51;;;;;;;8.57;7.75;;;17.40;99.90;;;;;;5051007;28;20080;-76
2022/06/17 06:36:16;;;;;;;9.05;7.90;;;17.50;99.90;;;;;;5051369;28;20037;-75
2022/06/17 06:38:42;;;;;;;8.77;7.70;;;17.50;99.90;;;;;;5050935;28;20059;-76
2022/06/17 06:41:07;;;;;;;9.38;7.72;;;17.50;99.90;;;;;;5051061;28;20094;-76
2022/06/17 06:43:34;;;;;;;13.40;7.50;;;17.60;99.90;;;;;;5050945;28;20463;-76
2022/06/17 06:46:06;;;;;;;8.88;7.97;;;17.70;99.90;;;;;;5050816;28;20044;-75
2022/06/17 06:48:31;;;;;;;10.73;7.93;;;17.80;99.90;;;;;;5050837;28;20566;-76
2022/06/17 06:50:57;;;;;;;9.85;7.55;;;17.90;99.90;;;;;;5050916;28;20084;-75
2022/06/17 06:53:23;;;;;;;8.02;7.25;;;18.00;99.90;;;;;;5052133;28;20115;-75
2022/06/17 06:55:49;;;;;;;8.25;7.40;;;18.20;99.90;;;;;;5050771;28;20033;-75
2022/06/17 06:58:18;;;;;;;8.27;7.00;;;18.40;99.90;;;;;;5050502;28;20107;-75
2022/06/17 07:00:46;;;;;;;8.15;7.10;;;18.60;99.90;;;;;;5050380;28;20519;-76
2022/06/17 07:03:13;;;;;;;8.18;7.30;;;19.00;99.90;;;;;;5050499;28;20041;-75
2022/06/17 07:05:42;;;;;;;8.60;7.35;;;19.20;99.90;;;;;;5050472;28;20364;-76
2022/06/17 07:08:11;;;;;;;7.57;6.93;;;19.40;99.90;;;;;;5050325;28;20597;-76
2022/06/17 07:10:37;;;;;;;7.85;6.80;;;19.60;99.90;;;;;;5033851;28;20073;-76
2022/06/17 07:13:05;;;;;;;7.97;7.03;;;19.70;99.90;;;;;;5033727;28;20028;-76
2022/06/17 07:15:32;;;;;;;9.32;6.40;;;19.90;99.90;;;;;;5050338;28;20059;-76
2022/06/17 07:18:07;;;;;;;7.07;6.38;;;20.20;99.90;;;;;;5050414;28;20120;-76
2022/06/17 07:20:42;;;;;;;9.80;6.53;;;20.40;99.90;;;;;;5033456;28;20083;-76
2022/06/17 07:23:12;;;;;;;7.38;5.85;;;20.50;99.90;;;;;;5050144;28;20083;-77
2022/06/17 07:25:38;;;;;;;8.38;6.63;;;20.60;99.90;;;;;;5036476;28;20059;-76
2022/06/17 07:28:05;;;;;;;7.07;6.40;;;20.70;99.90;;;;;;5052657;28;20051;-76
2022/06/17 07:30:33;;;;;;;7.43;6.70;;;20.90;99.90;;;;;;5053495;28;20092;-76
2022/06/17 07:32:59;;;;;;;8.00;6.90;;;21.00;99.90;;;;;;5053491;28;20036;-75
2022/06/17 07:35:27;;;;;;;8.38;6.35;;;21.10;99.90;;;;;;5053411;28;20056;-76
2022/06/17 07:40:36;;;;;;;6.80;5.85;;;21.10;99.90;;;;;;5069665;28;20044;-76
2022/06/17 07:43:02;;;;;;;7.38;6.53;;;21.20;99.90;;;;;;5036572;28;20482;-76
2022/06/17 07:45:30;;;;;;;6.30;5.10;;;21.50;99.90;;;;;;5052877;28;20127;-75
2022/06/17 07:47:57;;;;;;;8.05;5.40;;;22.30;99.90;;;;;;5053097;28;20085;-76
2022/06/17 07:50:28;;;;;;;7.22;5.47;;;;;;;;;;5070686;28;20553;-76
2022/06/17 07:52:54;;;;;;;8.93;5.10;;;;;;;;;;5052890;28;20592;-76
2022/06/17 07:55:20;;;;;;;5.72;5.22;;;23.40;99.30;;;;;;5036296;28;20097;-77
2022/06/17 07:57:46;;;;;;;6.55;5.00;;;24.40;94.90;;;;;;5052765;28;20114;-75
2022/06/17 08:00:25;;;;;;;6.18;5.57;;;24.50;95.00;;;;;;5036079;28;20482;-75
2022/06/17 08:02:51;;;;;;;6.43;4.90;;;24.60;93.90;;;;;;5052762;28;20574;-76
2022/06/17 08:05:17;;;;;;;7.18;4.88;;;24.70;93.90;;;;;;5036197;28;20136;-76
2022/06/17 08:07:43;;;;;;;7.00;5.35;;;24.70;94.10;;;;;;5052536;28;20128;-76
2022/06/17 08:10:13;;;;;;;7.40;4.97;;;24.50;94.10;;;;;;5035995;28;20119;-76
2022/06/17 08:12:39;;;;;;;4.90;4.43;;;24.30;93.10;;;;;;5052970;28;20451;-75
2022/06/17 08:15:05;;;;;;;6.97;4.60;;;24.30;94.20;;;;;;5052720;28;20127;-76
2022/06/17 08:17:31;;;;;;;5.57;4.90;;;24.20;94.20;;;;;;5035698;28;20079;-76
2022/06/17 08:19:57;;;;;;;5.55;5.05;;;24.20;93.90;;;;;;5052641;28;20037;-76
2022/06/17 08:22:26;;;;;;;7.65;4.65;;;24.20;93.90;;;;;;5052333;28;20055;-75
2022/06/17 08:24:53;;;;;;;6.43;4.30;;;24.20;94.20;;;;;;5052091;28;20052;-76
2022/06/17 08:27:19;;;;;;;11.32;4.72;;;24.10;94.40;;;;;;5052146;28;20576;-75
2022/06/17 08:29:44;;;;;;;6.43;4.28;;;24.20;94.50;;;;;;5070614;28;20047;-75
2022/06/17 08:34:54;;;;;;;5.15;4.45;;;24.50;92.80;;;;;;5068908;28;20098;-76
2022/06/17 08:37:20;;;;;;;8.18;4.78;;;24.70;93.30;;;;;;5051930;28;20036;-75
2022/06/17 08:39:47;;;;;;;5.43;4.65;;;25.00;92.90;;;;;;5035552;28;20032;-76
2022/06/17 08:42:32;;;;;;;5.22;4.47;;;25.20;92.10;;;;;;5052336;28;20032;-75
2022/06/17 08:45:24;;;;;;;4.28;3.88;;;25.40;92.50;;;;;;5052090;28;20053;-76
2022/06/17 08:48:13;;;;;;;6.55;4.30;;;25.60;92.00;;;;;;5051984;28;20055;-76
2022/06/17 08:50:41;;;;;;;6.53;5.40;;;25.80;91.60;;;;;;5035483;28;20047;-76
2022/06/17 08:53:16;;;;;;;6.18;4.35;;;25.90;91.20;;;;;;5051976;28;20525;-76
2022/06/17 08:55:54;;;;;;;4.43;3.90;;;26.00;90.70;;;;;;5035560;28;20047;-75
2022/06/17 08:58:27;;;;;;;4.70;4.28;;;25.90;90.80;;;;;;5035336;28;20039;-77
2022/06/17 09:01:26;;;;;;;5.35;4.57;;;25.80;90.40;;;;;;5069981;28;20075;-76
2022/06/17 09:04:14;;;;;;;5.95;4.78;;;25.70;88.10;;;;;;5043822;28;20102;-76
2022/06/17 09:06:52;;;;;;;5.32;4.72;;;25.50;89.10;;;;;;5051901;28;20036;-76
2022/06/17 09:09:55;;;;;;;6.00;4.53;;;25.30;90.20;;;;;;5051919;28;20452;-76
2022/06/17 09:12:39;;;;;;;6.25;4.50;;;25.20;89.70;;;;;;5052200;28;20370;-75
2022/06/17 09:15:04;;;;;;;6.43;5.55;;;24.90;90.30;;;;;;5051926;28;20438;-76
2022/06/17 09:17:54;;;;;;;8.43;5.47;;;24.80;90.30;;;;;;5051841;28;20036;-76
2022/06/17 09:20:28;;;;;;;9.65;4.97;;;24.80;90.30;;;;;;5051956;28;20096;-76
2022/06/17 09:22:58;;;;;;;7.53;4.90;;;24.70;90.10;;;;;;5051723;28;20052;-76
2022/06/17 09:25:28;;;;;;;8.00;5.72;;;24.80;90.70;;;;;;5035163;28;20814;-76
2022/06/17 09:27:56;;;;;;;6.95;4.68;;;24.70;90.50;;;;;;5051985;28;20456;-76
2022/06/17 09:30:33;;;;;;;7.57;4.95;;;24.80;90.30;;;;;;5035280;28;20049;-76
2022/06/17 09:33:11;;;;;;;7.20;5.13;;;24.80;90.50;;;;;;5051635;28;20045;-76
2022/06/17 09:35:49;;;;;;;5.30;4.80;;;24.80;91.00;;;;;;5035037;28;20037;-76
2022/06/17 09:38:22;;;;;;;7.20;6.03;;;24.70;91.50;;;;;;5051691;28;20056;-76
2022/06/17 09:41:14;;;;;;;9.15;5.63;;;24.70;90.00;;;;;;5035018;28;20048;-76
2022/06/17 09:43:47;;;;;;;9.55;5.63;;;24.70;90.80;;;;;;5051655;28;20080;-77
2022/06/17 09:46:20;;;;;;;7.53;5.03;;;24.90;90.70;;;;;;5051627;28;20040;-77
2022/06/17 09:49:07;;;;;;;6.88;5.05;;;25.00;90.10;;;;;;5051432;28;20048;-76
2022/06/17 09:51:46;;;;;;;8.07;5.43;;;25.00;90.80;;;;;;5055352;28;20389;-76
2022/06/17 09:54:35;;;;;;;5.72;4.75;;;25.10;89.80;;;;;;5055016;28;20040;-75
2022/06/17 09:57:14;;;;;;;9.77;4.10;;;25.30;90.30;;;;;;5055167;28;20032;-76
2022/06/17 09:59:46;;;;;;;7.68;3.80;;;25.60;89.40;;;;;;5055052;28;20119;-76
2022/06/17 10:02:35;;;;;;;5.60;3.97;;;25.70;90.40;;;;;;5038323;28;20506;-76
2022/06/17 10:05:10;;;;;;;5.43;3.67;;;25.90;89.80;;;;;;5072831;28;20046;-75
2022/06/17 10:07:47;;;;;;;5.05;4.30;;;25.80;87.70;;;;;;5054839;28;20079;-75
2022/06/17 10:10:23;;;;;;;5.07;4.20;;;25.90;85.80;;;;;;5038228;28;20132;-76
2022/06/17 10:12:55;;;;;;;7.88;4.00;;;25.80;86.00;;;;;;5054917;28;20557;-76
2022/06/17 10:18:31;;;;;;;7.95;3.47;;;25.80;86.00;;;;;;5054985;28;20478;-76
2022/06/17 10:18:52;;;;;;;6.15;3.70;;;25.80;87.30;;;;;;5054454;28;20051;-75
2022/06/17 10:21:36;;;;;;;4.85;3.35;;;25.80;86.00;;;;;;5054842;28;20509;-75
2022/06/17 10:24:24;;;;;;;5.30;3.53;;;25.80;86.10;;;;;;5054366;28;20117;-75
2022/06/17 10:27:10;;;;;;;5.22;3.63;;;25.90;86.60;;;;;;5054527;28;20056;-75
2022/06/17 10:30:02;;;;;;;5.15;2.95;;;25.90;86.00;;;;;;5037727;28;20524;-75
2022/06/17 10:32:29;;;;;;;5.03;3.45;;;26.00;87.50;;;;;;5054747;28;20063;-75
2022/06/17 10:35:02;;;;;;;6.30;3.50;;;25.90;85.40;;;;;;5054326;28;20058;-75
2022/06/17 10:37:29;;;;;;;7.43;3.50;;;25.80;86.70;;;;;;5054251;28;20490;-76
2022/06/17 10:39:56;;;;;;;5.43;3.88;;;25.70;86.90;;;;;;5054142;28;20123;-75
2022/06/17 10:42:25;;;;;;;7.07;3.58;;;25.60;86.70;;;;;;5054265;28;20047;-75
2022/06/17 10:44:53;;;;;;;5.00;3.55;;;25.50;86.40;;;;;;5054405;28;20045;-76
2022/06/17 10:47:45;;;;;;;4.95;3.63;;;25.40;86.70;;;;;;5037517;28;20063;-76
2022/06/17 10:50:23;;;;;;;3.80;2.92;;;25.40;86.10;;;;;;5054069;28;20033;-76
2022/06/17 10:53:15;;;;;;;6.50;3.60;;;25.40;88.10;;;;;;5037921;28;20048;-76
2022/06/17 10:55:46;;;;;;;5.57;3.67;;;25.60;88.00;;;;;;5037372;28;20123;-76
2022/06/17 10:58:17;;;;;;;6.87;3.80;;;25.80;86.80;;;;;;5054066;28;20040;-75
2022/06/17 11:01:03;;;;;;;4.43;4.00;;;26.00;87.50;;;;;;5053205;28;20078;-76
2022/06/17 11:03:30;;;;;;;4.20;3.70;;;26.20;85.40;;;;;;5053739;28;20044;-75
2022/06/17 11:06:20;;;;;;;7.00;3.75;;;26.20;85.30;;;;;;5037055;28;20078;-75
2022/06/17 11:08:57;;;;;;;6.30;3.72;;;26.30;86.30;;;;;;5053759;28;20114;-76
2022/06/17 11:14:29;;;;;;;5.65;3.85;;;26.70;84.20;;;;;;5070901;28;20053;-76
2022/06/17 11:16:55;;;;;;;6.10;3.97;;;26.80;82.80;;;;;;5053651;28;20127;-76
2022/06/17 11:19:24;;;;;;;7.53;3.88;;;26.90;83.10;;;;;;5053700;28;20120;-76
2022/06/17 11:21:57;;;;;;;5.90;3.78;;;26.90;83.40;;;;;;5053546;28;20048;-76
2022/06/17 11:24:32;;;;;;;5.00;3.47;;;27.00;83.50;;;;;;5053556;28;20075;-76
2022/06/17 11:27:25;;;;;;;5.35;3.40;;;27.20;84.90;;;;;;5053492;28;20567;-76
2022/06/17 11:29:54;;;;;;;7.38;4.00;;;27.20;87.60;;;;;;5045386;28;20063;-76
2022/06/17 11:32:19;;;;;;;6.35;3.88;;;27.10;83.80;;;;;;5053230;28;20051;-76
2022/06/17 11:34:57;;;;;;;6.35;4.03;;;27.20;81.70;;;;;;5053606;28;20048;-76
2022/06/17 11:37:33;;;;;;;7.57;3.55;;;27.00;81.50;;;;;;5053220;28;20051;-76
2022/06/17 11:40:16;;;;;;;6.60;3.42;;;27.00;83.20;;;;;;5053311;28;20052;-77
2022/06/17 11:43:00;;;;;;;5.38;3.35;;;27.00;85.00;;;;;;5053224;28;20051;-76
2022/06/17 11:45:31;;;;;;;7.93;3.35;;;27.10;83.30;;;;;;5053038;28;20059;-77
2022/06/17 11:48:13;;;;;;;5.43;3.40;;;27.20;83.40;;;;;;5052856;28;20551;-76
2022/06/17 11:50:41;;;;;;;3.42;2.97;;;27.30;82.30;;;;;;5052967;28;20459;-76
2022/06/17 11:53:12;;;;;;;5.00;3.20;;;27.40;82.10;;;;;;5052790;28;20040;-77
2022/06/17 11:55:47;;;;;;;5.20;3.55;;;27.50;82.20;;;;;;5052826;28;20040;-76
2022/06/17 11:58:17;;;;;;;4.03;3.25;;;27.70;80.90;;;;;;5052832;28;20040;-75
2022/06/17 12:00:49;;;;;;;6.07;3.20;;;27.90;78.70;;;;;;5052893;28;20052;-76
2022/06/17 12:03:34;;;;;;;4.93;3.35;;;28.10;79.50;;;;;;5052918;28;20086;-76
2022/06/17 12:06:05;;;;;;;6.32;3.42;;;28.10;78.00;;;;;;5025479;28;20067;-76
2022/06/17 12:08:44;;;;;;;6.38;2.95;;;28.10;79.10;;;;;;5052700;28;20116;-76
2022/06/17 12:11:19;;;;;;;4.43;3.25;;;28.10;79.60;;;;;;5052570;28;20044;-76
2022/06/17 12:13:49;;;;;;;5.63;3.60;;;28.20;77.70;;;;;;5035765;28;20068;-76
2022/06/17 12:16:23;;;;;;;5.53;3.15;;;28.20;77.10;;;;;;5052633;28;20048;-76
2022/06/17 12:18:57;;;;;;;4.45;3.17;;;28.30;77.30;;;;;;5052731;28;20088;-76
2022/06/17 12:21:28;;;;;;;3.95;2.88;;;28.40;78.80;;;;;;5036013;28;20090;-75
2022/06/17 12:24:03;;;;;;;;;;;28.40;78.90;;;;;;5070797;28;20139;-76
2022/06/17 12:26:35;;;;;;;4.47;3.13;;;28.30;77.60;;;;;;5035810;28;19926;-76
2022/06/17 12:29:21;;;;;;;7.22;3.40;;;28.30;76.20;;;;;;5035684;28;20044;-76
2022/06/17 12:31:58;;;;;;;5.70;3.45;;;28.20;75.50;;;;;;5052272;28;20045;-76
2022/06/17 12:34:53;;;;;;;4.40;3.20;;;28.30;74.50;;;;;;5035984;28;20382;-76
2022/06/17 12:40:25;;;;;;;4.68;3.13;;;28.30;77.10;;;;;;4989256;28;20484;-76
2022/06/17 12:43:18;;;;;;;5.45;3.30;;;28.50;76.10;;;;;;4973673;28;20065;-76
2022/06/17 12:46:03;;;;;;;4.70;2.97;;;28.50;73.70;;;;;;4973864;28;20487;-76
2022/06/17 12:48:49;;;;;;;8.07;3.30;;;28.60;73.60;;;;;;4973582;28;20045;-76
2022/06/17 12:55:07;;;;;;;5.38;3.40;;;28.30;72.90;;;;;;4973491;28;20407;-76
2022/06/17 12:57:57;;;;;;;6.88;2.85;;;28.40;74.70;;;;;;4963018;28;20047;-76
2022/06/17 13:00:40;;;;;;;11.75;3.75;;;28.30;74.60;;;;;;4973821;28;20459;-76
2022/06/17 13:03:33;;;;;;;5.30;3.05;;;28.30;73.50;;;;;;4973683;28;20345;-77
2022/06/17 13:06:28;;;;;;;9.00;3.83;;;28.50;72.80;;;;;;4990931;28;20074;-76
2022/06/17 13:09:14;;;;;;;4.32;3.83;;;28.50;71.80;;;;;;4921212;28;20050;-77
2022/06/17 13:11:49;;;;;;;5.35;3.63;;;28.60;71.80;;;;;;4934330;28;20047;-76
2022/06/17 13:14:56;;;;;;;4.20;3.20;;;28.60;71.60;;;;;;4957032;28;20518;-76
2022/06/17 13:17:58;;;;;;;3.67;3.30;;;28.70;74.70;;;;;;4973062;28;20381;-75
2022/06/17 13:20:27;;;;;;;6.57;3.15;;;28.90;71.10;;;;;;4973413;28;20038;-76
2022/06/17 13:23:07;;;;;;;4.10;2.83;;;28.80;72.10;;;;;;4957062;28;20039;-75
2022/06/17 13:25:43;;;;;;;3.40;3.10;;;28.80;70.50;;;;;;4975528;28;20133;-77
2022/06/17 13:28:22;;;;;;;5.03;2.92;;;28.90;73.80;;;;;;4976773;28;20381;-76
2022/06/17 13:30:56;;;;;;;6.57;3.13;;;28.70;71.90;;;;;;4976888;28;20045;-76
2022/06/17 13:33:34;;;;;;;5.03;3.20;;;28.70;72.50;;;;;;4976962;28;20391;-75
2022/06/17 13:36:23;;;;;;;6.38;3.08;;;28.60;69.10;;;;;;4976688;28;20506;-76